Time;durP1;ratioP1;P1;durP2;ratioP2;P2;SDS_P1;SDS_P2;PMS_P1;PMS_P2;Temp;Humidity;BMP_temperature;BMP_pressure;BME280_temperature;BME280_humidity;BME280_pressure;Samples;Min_cycle;Max_cycle;Signal;HPM_P1;HPM_P2
2022/04/12 00:00:22;;;;;;;5.30;2.33;;;9.80;97.80;;;;;;5055135;28;20528;-78
2022/04/12 00:02:47;;;;;;;3.72;2.22;;;9.80;97.70;;;;;;5056090;28;20021;-79
2022/04/12 00:05:13;;;;;;;3.40;2.30;;;9.80;97.70;;;;;;5056450;28;20021;-79
2022/04/12 00:07:43;;;;;;;5.75;1.95;;;9.80;98.00;;;;;;5073290;28;20021;-79
2022/04/12 00:10:11;;;;;;;5.60;2.13;;;9.80;98.40;;;;;;5056128;28;20053;-79
2022/04/12 00:12:37;;;;;;;4.13;2.08;;;9.80;98.50;;;;;;5055552;28;20021;-79
2022/04/12 00:15:04;;;;;;;4.28;2.20;;;9.70;98.30;;;;;;5055888;28;20411;-79
2022/04/12 00:20:15;;;;;;;4.28;2.35;;;9.70;98.00;;;;;;5073910;28;20040;-79
2022/04/12 00:22:41;;;;;;;4.20;2.28;;;9.80;98.00;;;;;;5055615;28;20036;-78
2022/04/12 00:25:09;;;;;;;3.25;2.25;;;9.70;98.70;;;;;;5073745;28;20040;-79
2022/04/12 00:27:36;;;;;;;6.32;2.20;;;9.60;98.70;;;;;;5055407;28;20027;-79
2022/04/12 00:30:03;;;;;;;3.08;2.30;;;9.60;98.90;;;;;;5073492;28;20020;-78
2022/04/12 00:32:28;;;;;;;4.00;1.90;;;9.40;99.20;;;;;;5073312;28;20066;-79
2022/04/12 00:34:54;;;;;;;3.88;2.15;;;9.40;99.40;;;;;;5073577;28;20392;-79
2022/04/12 00:37:19;;;;;;;3.40;2.20;;;9.50;99.50;;;;;;5073151;28;20031;-79
2022/04/12 00:39:45;;;;;;;6.00;2.50;;;9.50;99.20;;;;;;5073288;28;20021;-79
2022/04/12 00:42:11;;;;;;;2.53;1.85;;;9.50;99.10;;;;;;5055695;28;20070;-79
2022/04/12 00:44:36;;;;;;;3.03;2.03;;;9.60;99.10;;;;;;5055272;28;20024;-79
2022/04/12 00:47:02;;;;;;;11.45;2.35;;;9.60;99.00;;;;;;5073553;28;20020;-79
2022/04/12 00:49:28;;;;;;;2.47;1.90;;;9.60;99.10;;;;;;5072956;28;20361;-79
2022/04/12 00:51:54;;;;;;;6.18;2.20;;;9.70;99.10;;;;;;5073367;28;20031;-79
2022/04/12 00:54:23;;;;;;;2.88;2.28;;;9.60;99.40;;;;;;5055468;28;20075;-79
2022/04/12 00:56:51;;;;;;;6.30;2.20;;;9.60;99.50;;;;;;5055762;28;20027;-79
2022/04/12 00:59:16;;;;;;;3.10;1.90;;;9.60;99.90;;;;;;5055626;28;20028;-79
2022/04/12 01:01:42;;;;;;;4.65;2.08;;;9.60;99.90;;;;;;5055087;28;20029;-79
2022/04/12 01:04:08;;;;;;;3.25;2.28;;;9.60;99.90;;;;;;5055504;28;20449;-79
2022/04/12 01:06:34;;;;;;;5.00;2.15;;;9.60;99.80;;;;;;5055080;28;20028;-79
2022/04/12 01:09:04;;;;;;;3.58;2.25;;;9.60;99.90;;;;;;5073507;28;20029;-79
2022/04/12 01:11:30;;;;;;;7.53;2.17;;;9.60;99.90;;;;;;5055108;28;20457;-79
2022/04/12 01:13:55;;;;;;;3.40;2.08;;;9.50;99.90;;;;;;5059442;28;20020;-79
2022/04/12 01:16:21;;;;;;;3.28;2.00;;;9.60;99.90;;;;;;5059670;28;20024;-79
2022/04/12 01:18:47;;;;;;;3.47;2.10;;;9.50;99.90;;;;;;5059384;28;20346;-79
2022/04/12 01:21:13;;;;;;;3.17;2.03;;;9.50;99.90;;;;;;5059635;28;20048;-79
2022/04/12 01:24:00;;;;;;;4.40;2.08;;;9.50;99.90;;;;;;5058789;28;20437;-79
2022/04/12 01:26:26;;;;;;;3.35;2.30;;;9.50;99.90;;;;;;5058800;28;20025;-79
2022/04/12 01:28:52;;;;;;;5.13;2.47;;;9.50;99.90;;;;;;5059258;28;20021;-79
2022/04/12 01:31:18;;;;;;;3.28;2.33;;;9.40;99.90;;;;;;5059292;28;20036;-79
2022/04/12 01:33:43;;;;;;;3.65;2.10;;;9.40;99.90;;;;;;5058797;28;20021;-79
2022/04/12 01:36:09;;;;;;;3.65;2.25;;;9.40;99.90;;;;;;5059335;28;20494;-79
2022/04/12 01:38:35;;;;;;;4.03;2.25;;;9.40;99.90;;;;;;5058609;28;20024;-79
2022/04/12 01:41:02;;;;;;;3.88;2.17;;;9.40;99.90;;;;;;5059147;28;20127;-79
2022/04/12 01:43:28;;;;;;;3.15;2.00;;;9.30;99.90;;;;;;5058695;28;20373;-79
2022/04/12 01:45:54;;;;;;;2.85;2.10;;;9.30;99.90;;;;;;5059211;28;20584;-79
2022/04/12 01:48:19;;;;;;;3.00;2.30;;;9.30;99.90;;;;;;5058915;28;20111;-79
2022/04/12 01:50:45;;;;;;;4.22;2.22;;;9.30;99.90;;;;;;5076287;28;20028;-79
2022/04/12 01:53:10;;;;;;;3.95;2.17;;;9.30;99.90;;;;;;5076455;28;20027;-79
2022/04/12 01:55:36;;;;;;;3.53;2.03;;;9.20;99.90;;;;;;5058530;28;20017;-78
2022/04/12 01:58:02;;;;;;;4.10;2.47;;;9.20;99.90;;;;;;5058783;28;20020;-79
2022/04/12 02:00:28;;;;;;;2.80;2.20;;;9.10;99.90;;;;;;5076076;28;20021;-79
2022/04/12 02:02:53;;;;;;;2.83;2.10;;;9.00;99.90;;;;;;5076403;28;20060;-79
2022/04/12 02:05:20;;;;;;;4.78;2.20;;;9.00;99.90;;;;;;5058786;28;20214;-79
2022/04/12 02:07:45;;;;;;;3.67;2.03;;;9.10;99.90;;;;;;5075885;28;20441;-78
2022/04/12 02:10:11;;;;;;;6.15;2.20;;;9.00;99.90;;;;;;5058741;28;20038;-79
2022/04/12 02:12:37;;;;;;;4.15;2.10;;;9.00;99.90;;;;;;5075756;28;20071;-79
2022/04/12 02:15:03;;;;;;;5.50;2.42;;;8.90;99.90;;;;;;5058493;28;20069;-78
2022/04/12 02:17:29;;;;;;;3.63;2.30;;;8.90;99.90;;;;;;5057872;28;20020;-79
2022/04/12 02:19:55;;;;;;;3.78;2.35;;;8.70;99.90;;;;;;5075963;28;20074;-79
2022/04/12 02:22:21;;;;;;;6.00;2.30;;;8.70;99.90;;;;;;5076084;28;20033;-79
2022/04/12 02:24:46;;;;;;;3.42;1.88;;;8.60;99.90;;;;;;5075070;28;20453;-79
2022/04/12 02:27:12;;;;;;;4.82;2.13;;;8.50;99.90;;;;;;5058481;28;20074;-79
2022/04/12 02:29:39;;;;;;;4.10;2.17;;;8.60;99.90;;;;;;5057796;28;20450;-79
2022/04/12 02:32:06;;;;;;;5.18;2.13;;;8.50;99.90;;;;;;5058082;28;20466;-79
2022/04/12 02:34:32;;;;;;;5.38;2.28;;;8.50;99.90;;;;;;5074998;28;20457;-79
2022/04/12 02:36:58;;;;;;;3.80;2.10;;;8.50;99.90;;;;;;5058207;28;20031;-79
2022/04/12 02:39:24;;;;;;;4.82;1.85;;;8.50;99.90;;;;;;5057745;28;20028;-79
2022/04/12 02:41:49;;;;;;;3.90;2.25;;;8.50;99.90;;;;;;5057549;28;20043;-79
2022/04/12 02:44:15;;;;;;;4.55;2.28;;;8.40;99.90;;;;;;5075705;28;20020;-78
2022/04/12 02:46:41;;;;;;;3.22;2.05;;;8.30;99.90;;;;;;5057253;28;20021;-78
2022/04/12 02:49:07;;;;;;;5.60;2.30;;;8.30;99.90;;;;;;5058045;28;20457;-78
2022/04/12 02:51:32;;;;;;;4.00;2.03;;;8.40;99.90;;;;;;5075145;28;20032;-79
2022/04/12 02:53:58;;;;;;;4.10;2.22;;;8.40;99.90;;;;;;5058118;28;20425;-79
2022/04/12 02:56:24;;;;;;;4.72;2.25;;;8.40;99.90;;;;;;5058090;28;20027;-79
2022/04/12 02:58:49;;;;;;;4.43;2.80;;;8.30;99.90;;;;;;5057216;28;20024;-79
2022/04/12 03:01:15;;;;;;;4.32;2.40;;;8.40;99.90;;;;;;5057764;28;20055;-79
2022/04/12 03:03:41;;;;;;;4.22;2.60;;;8.40;99.90;;;;;;5074578;28;20020;-79
2022/04/12 03:06:06;;;;;;;2.60;2.40;;;8.50;99.90;;;;;;5075389;28;20471;-79
2022/04/12 03:08:32;;;;;;;4.57;2.40;;;8.40;99.90;;;;;;5056921;28;20381;-79
2022/04/12 03:10:57;;;;;;;3.13;2.38;;;8.40;99.90;;;;;;5075357;28;20032;-79
2022/04/12 03:13:23;;;;;;;4.95;2.45;;;8.40;99.90;;;;;;5075069;28;20103;-79
2022/04/12 03:15:49;;;;;;;5.03;2.50;;;8.40;99.90;;;;;;5056948;28;20039;-79
2022/04/12 03:18:16;;;;;;;4.72;2.63;;;8.40;99.90;;;;;;5057280;28;20021;-79
2022/04/12 03:20:42;;;;;;;3.47;2.30;;;8.40;99.90;;;;;;5056677;28;20032;-78
2022/04/12 03:23:08;;;;;;;3.35;2.22;;;8.30;99.90;;;;;;5057397;28;20120;-79
2022/04/12 03:25:34;;;;;;;4.05;2.67;;;8.30;99.90;;;;;;5074035;28;20419;-79
2022/04/12 03:28:00;;;;;;;3.10;2.35;;;8.30;99.90;;;;;;5075124;28;20027;-79
2022/04/12 03:30:26;;;;;;;4.15;2.35;;;8.20;99.90;;;;;;5057184;28;20361;-79
2022/04/12 03:32:51;;;;;;;6.95;2.72;;;8.20;99.90;;;;;;5074395;28;20025;-79
2022/04/12 03:35:17;;;;;;;4.55;2.25;;;8.20;99.90;;;;;;5056251;28;20027;-79
2022/04/12 03:37:42;;;;;;;3.38;2.40;;;8.20;99.90;;;;;;5073816;28;20031;-79
2022/04/12 03:40:09;;;;;;;4.55;2.97;;;8.20;99.90;;;;;;5057170;28;20025;-79
2022/04/12 03:42:35;;;;;;;5.43;2.50;;;8.10;99.90;;;;;;5056296;28;20136;-79
2022/04/12 03:45:01;;;;;;;4.13;2.67;;;8.20;99.90;;;;;;5056555;28;20048;-79
2022/04/12 03:47:26;;;;;;;6.05;2.83;;;8.10;99.90;;;;;;5056725;28;20086;-79
2022/04/12 03:49:52;;;;;;;3.53;2.47;;;8.10;99.90;;;;;;5055940;28;20343;-79
2022/04/12 03:52:17;;;;;;;4.88;2.60;;;8.00;99.90;;;;;;5056710;28;20115;-79
2022/04/12 03:54:43;;;;;;;4.47;2.58;;;7.90;99.90;;;;;;5056143;28;20023;-79
2022/04/12 03:57:17;;;;;;;5.85;2.90;;;7.90;99.90;;;;;;5111346;27;20709;-79
2022/04/12 03:59:42;;;;;;;3.90;2.20;;;7.90;99.90;;;;;;5110983;28;20028;-79
2022/04/12 04:02:08;;;;;;;3.35;2.67;;;7.90;99.90;;;;;;5110252;28;20085;-79
2022/04/12 04:04:34;;;;;;;4.28;2.45;;;7.90;99.90;;;;;;5110741;28;20092;-79
2022/04/12 04:06:59;;;;;;;3.85;2.78;;;7.80;99.90;;;;;;5110017;28;20031;-79
2022/04/12 04:09:25;;;;;;;4.10;2.53;;;7.80;99.90;;;;;;5111278;28;20026;-79
2022/04/12 04:11:51;;;;;;;5.45;2.67;;;7.80;99.90;;;;;;5109476;28;20020;-79
2022/04/12 04:14:17;;;;;;;4.15;2.40;;;7.80;99.90;;;;;;5110146;28;20020;-78
2022/04/12 04:16:42;;;;;;;7.95;2.92;;;7.80;99.90;;;;;;5109196;28;20024;-78
2022/04/12 04:19:11;;;;;;;3.90;2.63;;;7.70;99.90;;;;;;5109881;28;20456;-79
2022/04/12 04:21:37;;;;;;;3.47;2.75;;;7.60;99.90;;;;;;5109320;28;20077;-78
2022/04/12 04:24:03;;;;;;;4.22;2.88;;;7.70;99.90;;;;;;5110870;28;20019;-79
2022/04/12 04:26:29;;;;;;;5.32;2.70;;;7.60;99.90;;;;;;5109571;28;20468;-79
2022/04/12 04:28:55;;;;;;;8.20;3.05;;;7.60;99.90;;;;;;5108908;28;20077;-79
2022/04/12 04:31:21;;;;;;;5.03;2.95;;;7.70;99.90;;;;;;5110772;28;20024;-78
2022/04/12 04:33:47;;;;;;;4.32;2.80;;;7.70;99.90;;;;;;5110029;28;20025;-79
2022/04/12 04:36:12;;;;;;;5.13;3.22;;;7.70;99.90;;;;;;5109149;28;20087;-79
2022/04/12 04:38:38;;;;;;;4.13;2.72;;;7.70;99.90;;;;;;5110027;28;20098;-79
2022/04/12 04:41:04;;;;;;;4.78;2.45;;;7.60;99.90;;;;;;5109286;28;20022;-79
2022/04/12 04:43:29;;;;;;;4.40;2.70;;;7.60;99.90;;;;;;5109133;28;20023;-78
2022/04/12 04:45:55;;;;;;;4.78;2.75;;;7.60;99.90;;;;;;5109902;28;20052;-78
2022/04/12 04:48:21;;;;;;;6.30;2.50;;;7.60;99.90;;;;;;5110315;28;20020;-78
2022/04/12 04:50:47;;;;;;;3.63;2.42;;;7.60;99.90;;;;;;5108835;28;20480;-79
2022/04/12 04:53:12;;;;;;;5.22;3.13;;;7.60;99.90;;;;;;5110478;28;20019;-77
2022/04/12 04:55:42;;;;;;;5.43;2.80;;;7.60;99.90;;;;;;5108518;28;20056;-77
2022/04/12 04:58:08;;;;;;;5.47;2.90;;;7.50;99.90;;;;;;5110531;28;20027;-77
2022/04/12 05:00:34;;;;;;;4.20;2.67;;;7.60;99.90;;;;;;5109182;28;20020;-77
2022/04/12 05:03:01;;;;;;;3.55;2.38;;;7.50;99.90;;;;;;5109663;28;20088;-77
2022/04/12 05:05:28;;;;;;;4.68;2.90;;;7.60;99.90;;;;;;5108886;28;20024;-77
2022/04/12 05:07:56;;;;;;;4.72;2.58;;;7.50;99.90;;;;;;5099105;28;20055;-77
2022/04/12 05:10:24;;;;;;;5.57;2.85;;;7.40;99.90;;;;;;5095265;28;20020;-77
2022/04/12 05:12:50;;;;;;;5.18;3.20;;;7.40;99.90;;;;;;5094879;28;20043;-78
2022/04/12 05:15:16;;;;;;;4.93;3.60;;;7.50;99.90;;;;;;5095496;28;20086;-77
2022/04/12 05:17:49;;;;;;;4.00;3.15;;;7.60;99.90;;;;;;5095962;28;20016;-77
2022/04/12 05:20:14;;;;;;;7.75;3.50;;;7.60;99.90;;;;;;5095186;28;20024;-77
2022/04/12 05:22:40;;;;;;;6.13;3.25;;;7.70;99.90;;;;;;5096042;28;20093;-76
2022/04/12 05:25:06;;;;;;;6.78;3.58;;;7.70;99.90;;;;;;5094877;28;20028;-77
2022/04/12 05:27:33;;;;;;;5.22;3.47;;;7.80;99.90;;;;;;5095958;28;20027;-77
2022/04/12 05:30:04;;;;;;;5.28;3.50;;;7.80;99.90;;;;;;5094393;28;20495;-77
2022/04/12 05:32:29;;;;;;;7.03;3.28;;;7.80;99.90;;;;;;5094724;28;20115;-77
2022/04/12 05:34:55;;;;;;;5.60;3.58;;;7.90;99.90;;;;;;5094339;28;20056;-77
2022/04/12 05:37:21;;;;;;;5.15;3.63;;;7.90;99.90;;;;;;5095114;28;20031;-77
2022/04/12 05:39:47;;;;;;;5.10;3.47;;;7.90;99.90;;;;;;5094949;28;20121;-76
2022/04/12 05:42:13;;;;;;;6.85;3.42;;;8.00;99.90;;;;;;5094392;28;20024;-77
2022/04/12 05:44:38;;;;;;;6.75;3.70;;;8.00;99.90;;;;;;5094096;28;20157;-77
2022/04/12 05:47:04;;;;;;;4.75;3.10;;;8.00;99.90;;;;;;5095547;28;20028;-76
2022/04/12 05:49:31;;;;;;;6.28;3.40;;;8.10;99.90;;;;;;5094243;28;20529;-79
2022/04/12 05:51:57;;;;;;;6.90;3.78;;;8.10;99.90;;;;;;5095012;28;20012;-80
2022/04/12 05:54:23;;;;;;;6.75;3.50;;;8.10;99.90;;;;;;5093902;28;20019;-80
2022/04/12 05:56:50;;;;;;;8.20;3.72;;;8.20;99.90;;;;;;5094863;28;20059;-79
2022/04/12 05:59:15;;;;;;;8.07;3.92;;;8.20;99.90;;;;;;5095531;28;20024;-79
2022/04/12 06:01:42;;;;;;;8.13;4.07;;;8.20;99.90;;;;;;5094046;28;20369;-80
2022/04/12 06:04:08;;;;;;;10.32;3.70;;;8.30;99.90;;;;;;5094453;28;20020;-79
2022/04/12 06:06:34;;;;;;;8.10;3.90;;;8.40;99.90;;;;;;5094234;28;20028;-76
2022/04/12 06:09:01;;;;;;;8.80;4.32;;;8.50;99.90;;;;;;5093399;28;20024;-76
2022/04/12 06:11:27;;;;;;;8.25;3.90;;;8.40;99.90;;;;;;5093753;28;20095;-76
2022/04/12 06:13:53;;;;;;;9.05;3.95;;;8.40;99.90;;;;;;5093377;28;20055;-76
2022/04/12 06:16:19;;;;;;;6.50;3.85;;;8.40;99.90;;;;;;5094875;28;20094;-76
2022/04/12 06:18:45;;;;;;;7.20;4.00;;;8.50;99.90;;;;;;5093427;28;20020;-76
2022/04/12 06:21:10;;;;;;;5.35;3.15;;;8.50;99.90;;;;;;5093512;28;20024;-76
2022/04/12 06:23:36;;;;;;;4.68;3.58;;;8.50;99.90;;;;;;5095087;28;20020;-77
2022/04/12 06:26:02;;;;;;;7.18;3.47;;;8.50;99.90;;;;;;5094435;28;20449;-77
2022/04/12 06:28:29;;;;;;;6.80;3.72;;;8.60;99.90;;;;;;5094816;28;20024;-77
2022/04/12 06:30:57;;;;;;;5.43;3.50;;;8.60;99.90;;;;;;5093095;28;20521;-77
2022/04/12 06:33:23;;;;;;;6.03;3.30;;;8.70;99.90;;;;;;5094877;28;20099;-77
2022/04/12 06:35:50;;;;;;;5.18;3.53;;;8.70;99.90;;;;;;5094223;28;20108;-78
2022/04/12 06:38:16;;;;;;;7.32;3.58;;;8.80;99.90;;;;;;5093883;28;20031;-77
2022/04/12 06:40:44;;;;;;;6.28;3.63;;;8.80;99.90;;;;;;5094294;28;20020;-78
2022/04/12 06:43:10;;;;;;;5.97;3.50;;;8.80;99.90;;;;;;5094849;28;20016;-78
2022/04/12 06:45:36;;;;;;;5.05;3.17;;;8.90;99.90;;;;;;5093340;28;20118;-77
2022/04/12 06:48:01;;;;;;;6.82;3.22;;;8.90;99.90;;;;;;5093594;28;20063;-77
2022/04/12 06:50:28;;;;;;;4.63;3.10;;;9.00;99.90;;;;;;5094238;28;20558;-78
2022/04/12 06:52:56;;;;;;;12.43;4.10;;;9.10;99.90;;;;;;5092455;28;20048;-77
2022/04/12 06:55:22;;;;;;;6.43;4.20;;;9.10;99.90;;;;;;5093845;28;20036;-78
2022/04/12 06:57:48;;;;;;;7.22;3.83;;;9.20;99.90;;;;;;5092041;28;20028;-77
2022/04/12 07:00:14;;;;;;;7.15;4.38;;;9.30;99.90;;;;;;5093736;28;20369;-78
2022/04/12 07:02:40;;;;;;;8.18;3.97;;;9.30;99.90;;;;;;5092798;28;20024;-77
2022/04/12 07:05:07;;;;;;;6.10;3.42;;;9.30;99.90;;;;;;5092587;28;20028;-78
2022/04/12 07:07:38;;;;;;;3.92;3.15;;;9.40;99.90;;;;;;5092892;28;20031;-78
2022/04/12 07:10:10;;;;;;;4.93;2.63;;;9.40;99.90;;;;;;5093557;28;20093;-78
2022/04/12 07:12:36;;;;;;;7.75;3.28;;;9.50;99.90;;;;;;5092989;28;20419;-77
2022/04/12 07:15:03;;;;;;;8.88;3.40;;;9.50;99.90;;;;;;5093200;28;20048;-78
2022/04/12 07:17:29;;;;;;;8.35;3.90;;;9.60;99.90;;;;;;5092583;28;20028;-78
2022/04/12 07:19:55;;;;;;;6.03;3.22;;;9.70;99.90;;;;;;5092479;28;20419;-78
2022/04/12 07:22:21;;;;;;;5.97;3.25;;;9.70;99.90;;;;;;5093779;28;20099;-78
2022/04/12 07:24:46;;;;;;;8.75;3.67;;;9.80;99.90;;;;;;5093056;28;20051;-78
2022/04/12 07:27:12;;;;;;;8.05;4.15;;;9.90;99.90;;;;;;5092566;28;20560;-78
2022/04/12 07:29:38;;;;;;;9.25;3.53;;;10.00;99.90;;;;;;5092578;28;20115;-77
2022/04/12 07:32:04;;;;;;;5.82;3.58;;;10.10;99.90;;;;;;5091873;28;20030;-78
2022/04/12 07:34:30;;;;;;;5.65;3.10;;;10.20;99.90;;;;;;5093700;28;20019;-77
2022/04/12 07:36:56;;;;;;;5.85;3.25;;;10.20;99.90;;;;;;5091629;28;20028;-78
2022/04/12 07:39:22;;;;;;;7.18;2.95;;;10.30;99.90;;;;;;5092556;28;20050;-78
2022/04/12 07:41:49;;;;;;;5.60;3.33;;;10.40;99.90;;;;;;5093375;28;20089;-78
2022/04/12 07:44:17;;;;;;;5.57;3.10;;;10.50;99.80;;;;;;5092435;28;20031;-78
2022/04/12 07:46:43;;;;;;;4.82;3.22;;;10.60;99.80;;;;;;5092609;28;20028;-78
2022/04/12 07:49:08;;;;;;;6.70;3.70;;;10.60;99.90;;;;;;5091980;28;20483;-78
2022/04/12 07:51:35;;;;;;;6.53;3.35;;;10.70;99.60;;;;;;5093666;28;20035;-78
2022/04/12 07:54:01;;;;;;;5.75;3.50;;;10.70;99.70;;;;;;5091709;28;20074;-78
2022/04/12 07:56:27;;;;;;;4.47;3.00;;;10.80;99.70;;;;;;5091818;28;20040;-78
2022/04/12 07:58:53;;;;;;;7.88;3.13;;;10.80;99.40;;;;;;5093079;28;20020;-78
2022/04/12 08:01:19;;;;;;;6.32;2.83;;;10.90;99.30;;;;;;5092548;28;20027;-78
2022/04/12 08:03:44;;;;;;;5.75;2.75;;;10.90;99.30;;;;;;5092499;28;20115;-78
2022/04/12 08:06:10;;;;;;;6.68;3.13;;;10.90;99.50;;;;;;5091831;28;20417;-77
2022/04/12 08:08:35;;;;;;;3.63;2.50;;;10.90;99.40;;;;;;5092317;28;20484;-78
2022/04/12 08:11:02;;;;;;;5.88;2.72;;;11.00;99.50;;;;;;5091780;28;20055;-78
2022/04/12 08:13:28;;;;;;;7.55;2.88;;;11.00;99.30;;;;;;5092463;28;20024;-78
2022/04/12 08:15:53;;;;;;;6.07;2.58;;;11.20;99.40;;;;;;5092760;28;20031;-78
2022/04/12 08:18:19;;;;;;;5.25;3.10;;;11.30;99.60;;;;;;5092332;28;20070;-78
2022/04/12 08:20:49;;;;;;;6.00;2.53;;;11.40;99.20;;;;;;5092196;28;20020;-78
2022/04/12 08:23:16;;;;;;;6.55;2.40;;;11.40;98.50;;;;;;5092333;28;20030;-78
2022/04/12 08:25:41;;;;;;;7.38;3.35;;;11.50;98.20;;;;;;5092174;28;20028;-78
2022/04/12 08:28:07;;;;;;;4.72;3.00;;;11.60;98.40;;;;;;5092753;28;20210;-78
2022/04/12 08:30:32;;;;;;;4.88;2.72;;;11.80;98.20;;;;;;5091785;28;20027;-78
2022/04/12 08:32:58;;;;;;;5.50;2.40;;;11.80;97.90;;;;;;5092733;28;20024;-78
2022/04/12 08:35:24;;;;;;;5.38;2.10;;;11.90;97.50;;;;;;5093176;28;20310;-78
2022/04/12 08:37:49;;;;;;;2.53;1.90;;;12.10;96.40;;;;;;5092786;28;20099;-77
2022/04/12 08:40:18;;;;;;;3.58;1.88;;;12.20;95.60;;;;;;5092281;28;20020;-78
2022/04/12 08:42:44;;;;;;;5.85;2.35;;;12.30;95.20;;;;;;5094876;28;20490;-77
2022/04/12 08:45:11;;;;;;;5.10;1.88;;;12.30;95.10;;;;;;5096352;28;20107;-78
2022/04/12 08:47:36;;;;;;;4.82;2.10;;;12.40;94.90;;;;;;5095788;28;20031;-78
2022/04/12 08:50:04;;;;;;;4.25;1.42;;;12.40;94.90;;;;;;5094553;28;20024;-78
2022/04/12 08:52:30;;;;;;;4.32;1.90;;;12.50;94.80;;;;;;5094237;28;20525;-78
2022/04/12 08:54:56;;;;;;;4.75;1.85;;;12.50;94.50;;;;;;5094893;28;20059;-78
2022/04/12 08:57:21;;;;;;;2.08;1.48;;;12.60;93.80;;;;;;5095571;28;20063;-78
2022/04/12 08:59:48;;;;;;;5.45;2.17;;;12.70;93.20;;;;;;5095092;28;20055;-78
2022/04/12 09:02:13;;;;;;;3.63;1.63;;;12.80;92.90;;;;;;5095082;28;20058;-78
2022/04/12 09:04:39;;;;;;;6.70;1.67;;;12.90;93.30;;;;;;5096490;28;20352;-78
2022/04/12 09:07:11;;;;;;;5.43;2.40;;;13.10;92.10;;;;;;5095000;28;20361;-78
2022/04/12 09:09:39;;;;;;;2.13;1.30;;;13.20;92.00;;;;;;5095316;28;20028;-78
2022/04/12 09:12:09;;;;;;;6.05;1.90;;;13.30;92.40;;;;;;5094613;28;20028;-78
2022/04/12 09:14:46;;;;;;;3.28;1.63;;;13.40;92.40;;;;;;5095158;28;20016;-78
2022/04/12 09:17:19;;;;;;;3.50;1.85;;;13.50;92.30;;;;;;5095934;28;20298;-78
2022/04/12 09:19:46;;;;;;;4.38;1.80;;;13.60;92.40;;;;;;5094615;28;20027;-78
2022/04/12 09:22:16;;;;;;;3.28;1.67;;;13.50;91.60;;;;;;5094246;28;20032;-78
2022/04/12 09:24:48;;;;;;;3.90;2.05;;;13.60;92.30;;;;;;5096598;28;20016;-78
2022/04/12 09:27:16;;;;;;;5.97;1.88;;;13.70;92.10;;;;;;5094279;28;20028;-78
2022/04/12 09:29:51;;;;;;;6.57;1.80;;;13.60;92.00;;;;;;5095922;28;20042;-78
2022/04/12 09:32:21;;;;;;;5.97;1.98;;;13.60;92.10;;;;;;5095897;28;20491;-78
2022/04/12 09:34:47;;;;;;;3.05;1.63;;;13.60;92.30;;;;;;5094602;28;20442;-78
2022/04/12 09:37:27;;;;;;;4.68;1.90;;;13.60;92.40;;;;;;5094200;28;20150;-78
2022/04/12 09:39:58;;;;;;;3.95;1.80;;;13.70;92.70;;;;;;5094969;28;20103;-79
2022/04/12 09:42:50;;;;;;;3.75;1.80;;;13.80;92.80;;;;;;5094781;28;20579;-78
2022/04/12 09:45:27;;;;;;;3.33;1.80;;;13.90;92.60;;;;;;5095224;28;20027;-78
2022/04/12 09:47:55;;;;;;;3.25;1.92;;;14.00;92.30;;;;;;5094361;28;20112;-78
2022/04/12 09:50:25;;;;;;;4.93;1.85;;;14.20;91.40;;;;;;5094336;28;20373;-80
2022/04/12 09:52:59;;;;;;;4.80;1.92;;;14.30;90.80;;;;;;5094491;28;20028;-78
2022/04/12 09:55:41;;;;;;;6.45;2.20;;;14.50;91.10;;;;;;5095360;28;20044;-78
2022/04/12 09:58:09;;;;;;;3.10;1.88;;;14.40;90.80;;;;;;5095063;28;20107;-78
2022/04/12 10:00:36;;;;;;;5.22;2.33;;;14.30;91.00;;;;;;5094178;28;20097;-78
2022/04/12 10:03:07;;;;;;;5.63;2.10;;;14.40;91.30;;;;;;5093079;28;20023;-78
2022/04/12 10:05:33;;;;;;;3.15;1.90;;;14.40;91.00;;;;;;5094222;28;20081;-78
2022/04/12 10:08:01;;;;;;;3.20;1.92;;;14.50;91.00;;;;;;5093709;28;20061;-79
2022/04/12 10:10:27;;;;;;;2.85;2.08;;;14.60;91.10;;;;;;5094903;28;20046;-78
2022/04/12 10:12:54;;;;;;;4.43;2.10;;;14.50;91.20;;;;;;5093859;28;20093;-78
2022/04/12 10:15:21;;;;;;;2.78;1.85;;;14.50;91.40;;;;;;5093685;28;20027;-78
2022/04/12 10:17:48;;;;;;;4.63;2.10;;;14.50;91.80;;;;;;5093857;28;20032;-78
2022/04/12 10:20:16;;;;;;;3.60;2.08;;;14.60;91.80;;;;;;5093630;28;20234;-78
2022/04/12 10:22:42;;;;;;;6.03;2.17;;;14.70;91.10;;;;;;5093928;28;20024;-79
2022/04/12 10:25:16;;;;;;;4.13;2.17;;;14.70;91.20;;;;;;5093442;28;20413;-78
2022/04/12 10:27:42;;;;;;;2.83;1.90;;;14.70;90.90;;;;;;5093589;28;20035;-79
2022/04/12 10:30:17;;;;;;;3.80;2.17;;;14.80;91.20;;;;;;5094090;28;20024;-78
2022/04/12 10:33:15;;;;;;;3.03;2.13;;;14.90;91.10;;;;;;5093722;28;20066;-78
2022/04/12 10:35:51;;;;;;;2.83;2.00;;;14.90;91.00;;;;;;5093414;28;20070;-78
2022/04/12 10:38:18;;;;;;;5.22;2.05;;;14.90;91.10;;;;;;5082886;28;20024;-78
2022/04/12 10:40:44;;;;;;;3.58;1.88;;;14.90;91.10;;;;;;5090413;28;20020;-78
2022/04/12 10:43:14;;;;;;;5.13;2.00;;;15.10;90.50;;;;;;5087473;28;20035;-78
2022/04/12 10:45:48;;;;;;;4.43;2.08;;;15.10;90.70;;;;;;5091025;28;20024;-77
2022/04/12 10:48:23;;;;;;;3.33;2.10;;;15.00;90.90;;;;;;5089542;28;20483;-78
2022/04/12 10:50:56;;;;;;;4.55;2.20;;;15.20;90.90;;;;;;5089827;28;20028;-77
2022/04/12 10:53:37;;;;;;;2.20;1.48;;;15.30;90.70;;;;;;5090847;28;20047;-78
2022/04/12 10:56:12;;;;;;;3.47;2.00;;;15.50;89.90;;;;;;5088949;28;20052;-78
2022/04/12 10:58:38;;;;;;;3.25;2.00;;;15.70;89.30;;;;;;5090252;28;20059;-78
2022/04/12 11:01:08;;;;;;;8.57;1.65;;;15.90;88.80;;;;;;5090475;28;20024;-78
2022/04/12 11:03:44;;;;;;;2.75;1.80;;;15.90;89.40;;;;;;5074744;28;20024;-78
2022/04/12 11:06:21;;;;;;;3.08;1.60;;;15.90;90.40;;;;;;5085753;28;20028;-78
2022/04/12 11:08:49;;;;;;;4.47;1.80;;;16.00;90.40;;;;;;5083262;28;20055;-78
2022/04/12 11:11:21;;;;;;;3.05;1.73;;;16.00;89.50;;;;;;5089750;28;20063;-78
2022/04/12 11:13:49;;;;;;;3.75;1.58;;;16.00;89.90;;;;;;5089542;28;20020;-78
2022/04/12 11:16:17;;;;;;;2.67;1.50;;;16.00;89.40;;;;;;5090207;28;20028;-78
2022/04/12 11:18:53;;;;;;;2.67;1.50;;;16.10;89.40;;;;;;5089577;28;20051;-78
2022/04/12 11:21:21;;;;;;;2.55;1.55;;;16.30;89.10;;;;;;5088941;28;20035;-78
2022/04/12 11:23:51;;;;;;;3.15;1.73;;;16.60;86.00;;;;;;5089705;28;20031;-78
2022/04/12 11:26:37;;;;;;;2.20;1.40;;;16.60;86.10;;;;;;5089958;28;20230;-78
2022/04/12 11:29:30;;;;;;;1.77;1.27;;;16.70;85.10;;;;;;5088482;28;20044;-78
2022/04/12 11:31:58;;;;;;;3.97;1.70;;;17.00;81.30;;;;;;5076677;28;20032;-79
2022/04/12 11:34:26;;;;;;;4.03;1.48;;;17.10;81.00;;;;;;5089041;28;20050;-78
2022/04/12 11:36:59;;;;;;;3.65;1.42;;;17.10;81.00;;;;;;5080349;28;20039;-78
2022/04/12 11:39:27;;;;;;;3.08;1.20;;;17.10;82.50;;;;;;5088207;28;20407;-78
2022/04/12 11:42:01;;;;;;;2.75;1.23;;;17.40;81.70;;;;;;5088779;28;20445;-78
2022/04/12 11:44:27;;;;;;;2.78;1.17;;;17.60;80.70;;;;;;5088995;28;20024;-78
2022/04/12 11:47:10;;;;;;;2.50;1.23;;;17.60;79.30;;;;;;5090406;28;20030;-78
2022/04/12 11:49:38;;;;;;;2.67;1.20;;;17.90;77.60;;;;;;5072495;28;20055;-78
2022/04/12 11:52:11;;;;;;;2.67;1.10;;;18.10;80.80;;;;;;5087903;28;20016;-79
2022/04/12 11:54:39;;;;;;;2.35;0.95;;;18.20;76.70;;;;;;5088985;28;20487;-79
2022/04/12 11:57:11;;;;;;;2.42;1.10;;;18.20;76.00;;;;;;5089557;28;20097;-79
2022/04/12 11:59:37;;;;;;;2.10;1.05;;;18.30;74.90;;;;;;5069526;28;20025;-78
2022/04/12 12:02:05;;;;;;;2.83;1.42;;;18.40;74.10;;;;;;5075620;28;20043;-79
2022/04/12 12:04:32;;;;;;;2.88;1.17;;;18.60;73.50;;;;;;5088743;28;20461;-79
2022/04/12 12:07:02;;;;;;;7.28;1.45;;;18.90;71.50;;;;;;5080160;28;20035;-79
2022/04/12 12:09:29;;;;;;;3.08;0.90;;;19.10;70.80;;;;;;5088651;28;20024;-79
2022/04/12 12:12:00;;;;;;;2.25;0.80;;;19.10;71.40;;;;;;5088887;28;20599;-79
2022/04/12 12:14:27;;;;;;;2.60;0.83;;;19.30;75.00;;;;;;5088901;28;20024;-79
2022/04/12 12:17:01;;;;;;;1.27;0.77;;;19.40;75.20;;;;;;5089290;28;20090;-79
2022/04/12 12:19:27;;;;;;;0.80;0.57;;;19.40;74.70;;;;;;5093080;28;20027;-79
2022/04/12 12:21:53;;;;;;;1.45;0.65;;;19.50;67.20;;;;;;5094316;28;20020;-79
2022/04/12 12:24:18;;;;;;;2.05;0.65;;;19.60;67.30;;;;;;5092438;28;20024;-79
2022/04/12 12:26:44;;;;;;;1.75;0.70;;;19.90;68.10;;;;;;5094499;28;20377;-79
2022/04/12 12:29:12;;;;;;;1.25;0.55;;;20.00;68.10;;;;;;5093594;28;20028;-79
2022/04/12 12:31:43;;;;;;;2.22;0.60;;;20.20;68.40;;;;;;5093002;28;20401;-79
2022/04/12 12:34:35;;;;;;;3.10;0.98;;;20.30;65.20;;;;;;5091773;28;20024;-77
2022/04/12 12:37:08;;;;;;;0.82;0.50;;;20.50;61.60;;;;;;5088104;28;20040;-77
2022/04/12 12:39:39;;;;;;;4.53;0.70;;;20.70;59.20;;;;;;5085272;28;20050;-77
2022/04/12 12:42:05;;;;;;;2.53;0.70;;;20.80;58.30;;;;;;5092099;28;20027;-77
2022/04/12 12:44:36;;;;;;;4.00;0.75;;;21.00;57.00;;;;;;5092461;28;20106;-77
2022/04/12 12:47:04;;;;;;;3.05;0.70;;;21.20;56.20;;;;;;5092352;28;20035;-77
2022/04/12 12:49:38;;;;;;;2.00;0.57;;;21.40;55.70;;;;;;5093726;28;20073;-77
2022/04/12 12:52:05;;;;;;;1.05;0.60;;;21.70;55.30;;;;;;5093050;28;20320;-77
2022/04/12 12:54:31;;;;;;;1.63;0.70;;;21.90;55.90;;;;;;5093668;28;20020;-77
2022/04/12 12:56:57;;;;;;;0.80;0.70;;;22.10;56.60;;;;;;5091556;28;20058;-77